MET'MAP v2.0
soon released !

Expected late october,
this new version will be
more efficient, smarter,
and hosted on a brand new
server x3 powerfull...
...and still free !


Not compatible ?
Try the mobile version !

LOG IN : | Subscribe | Disclaimer | Who is Orbifly ? |
ICAO code :

TAF - LJLJ Ljubljana - 24 Jan 2020 16:01 UTC - Data Source NOAA   


- Airport Elevation : 1273 ft
- IATA code : LJU
- No reported NOTAMs.


LJLJ - Ljubljana

Latest METAR recorded : 2015/08/11 08:00 LJLJ 110800Z 23001KT 9999 FEW060 SCT100 22/16 Q1016 NOSIG
TAF TAF LJLJ
Valid from the 24 at 15:00 until the 25 at 15:00 UTC


241400Z 2415/2515 10005KT CAVOK
BECMG 2418/2420 29004KT
BECMG 2500/2503 SCT040 BKN090
TEMPO 2503/2510 -RA SCT030 BKN050

Source NOAA


MET'MAP, your aeronautical weather chart ! - Copyright ORBIFLY December 2007

Programming & Development : Alexandra Zaïnal
Co-Developer : Marc-Olivier Méhu
Technical & hardware support : Manuel Goepfert
Concept & Financing : Baudouin d'Aumeries